Terminal Aerodrome Forecast
Issued by NWS Jacksonville, FL

Home | Current Version | Previous Version | Text Only | Print | Product List | Glossary On
Versions: 1 2 3 4 5 6 7 8 9 10 11 12 13 14 15 16 17 18 19 20 21 22 23 24 25 26 27 28 29 30 31
000
FTUS42 KJAX 060719 AAA
TAFGNV
TAF AMD
KGNV 060719Z 0607/0706 36005KT P6SM SCT007 OVC012
      TEMPO 0607/0611 4SM -DZ BR BKN004 OVC007
     FM061700 02008KT 5SM BR OVC007
     FM070000 03010KT P6SM OVC015
     FM070300 03007KT P6SM SCT020 BKN250=

USA.gov is the U.S. government's official web portal to all federal, state and local government web resources and services.